sensor_id;sensor_type;location;lat;lon;timestamp;P1;durP1;ratioP1;P2;durP2;ratioP2
13057;SDS011;6595;49.578;11.012;2024-01-07T00:00:23;18.3;;;9.7;;
13057;SDS011;6595;49.578;11.012;2024-01-07T00:02:23;18.1;;;10.1;;
13057;SDS011;6595;49.578;11.012;2024-01-07T00:04:23;18.0;;;10.1;;
13057;SDS011;6595;49.578;11.012;2024-01-07T00:06:23;16.9;;;9.7;;
13057;SDS011;6595;49.578;11.012;2024-01-07T00:08:24;18.7;;;10.0;;
13057;SDS011;6595;49.578;11.012;2024-01-07T00:10:24;18.7;;;10.0;;
13057;SDS011;6595;49.578;11.012;2024-01-07T00:12:24;19.0;;;10.2;;
13057;SDS011;6595;49.578;11.012;2024-01-07T00:14:23;17.6;;;9.9;;
13057;SDS011;6595;49.578;11.012;2024-01-07T00:16:23;15.7;;;9.4;;
13057;SDS011;6595;49.578;11.012;2024-01-07T00:18:23;15.7;;;9.4;;
13057;SDS011;6595;49.578;11.012;2024-01-07T00:20:23;18.3;;;9.9;;
13057;SDS011;6595;49.578;11.012;2024-01-07T00:22:24;17.2;;;9.6;;
13057;SDS011;6595;49.578;11.012;2024-01-07T00:24:24;17.2;;;9.6;;
13057;SDS011;6595;49.578;11.012;2024-01-07T00:26:23;17.7;;;9.7;;
13057;SDS011;6595;49.578;11.012;2024-01-07T00:28:23;17.7;;;9.7;;
13057;SDS011;6595;49.578;11.012;2024-01-07T00:30:23;19.1;;;9.5;;
13057;SDS011;6595;49.578;11.012;2024-01-07T00:32:23;16.7;;;9.9;;
13057;SDS011;6595;49.578;11.012;2024-01-07T00:34:24;16.7;;;9.9;;
13057;SDS011;6595;49.578;11.012;2024-01-07T00:36:23;16.5;;;9.1;;
13057;SDS011;6595;49.578;11.012;2024-01-07T00:38:24;16.5;;;9.1;;
13057;SDS011;6595;49.578;11.012;2024-01-07T00:40:23;15.2;;;9.1;;
13057;SDS011;6595;49.578;11.012;2024-01-07T00:42:23;17.2;;;9.5;;
13057;SDS011;6595;49.578;11.012;2024-01-07T00:44:23;17.2;;;9.5;;
13057;SDS011;6595;49.578;11.012;2024-01-07T00:46:24;14.8;;;9.0;;
13057;SDS011;6595;49.578;11.012;2024-01-07T00:48:24;14.8;;;9.0;;
13057;SDS011;6595;49.578;11.012;2024-01-07T00:50:23;17.7;;;8.9;;
13057;SDS011;6595;49.578;11.012;2024-01-07T00:52:23;15.7;;;8.7;;
13057;SDS011;6595;49.578;11.012;2024-01-07T00:54:23;16.0;;;9.0;;
13057;SDS011;6595;49.578;11.012;2024-01-07T00:56:25;14.4;;;9.3;;
13057;SDS011;6595;49.578;11.012;2024-01-07T00:58:24;14.4;;;9.3;;
13057;SDS011;6595;49.578;11.012;2024-01-07T01:00:23;16.4;;;9.1;;
13057;SDS011;6595;49.578;11.012;2024-01-07T01:02:23;19.2;;;8.5;;
13057;SDS011;6595;49.578;11.012;2024-01-07T01:04:23;16.5;;;8.8;;
13057;SDS011;6595;49.578;11.012;2024-01-07T01:06:23;16.0;;;8.8;;
13057;SDS011;6595;49.578;11.012;2024-01-07T01:08:23;16.0;;;8.8;;
13057;SDS011;6595;49.578;11.012;2024-01-07T01:10:24;14.7;;;9.1;;
13057;SDS011;6595;49.578;11.012;2024-01-07T01:12:23;14.9;;;9.3;;
13057;SDS011;6595;49.578;11.012;2024-01-07T01:14:23;16.3;;;8.9;;
13057;SDS011;6595;49.578;11.012;2024-01-07T01:16:23;16.3;;;8.9;;
13057;SDS011;6595;49.578;11.012;2024-01-07T01:18:23;16.0;;;8.7;;
13057;SDS011;6595;49.578;11.012;2024-01-07T01:20:23;16.3;;;9.1;;
13057;SDS011;6595;49.578;11.012;2024-01-07T01:22:23;16.3;;;9.1;;
13057;SDS011;6595;49.578;11.012;2024-01-07T01:24:24;16.6;;;9.3;;
13057;SDS011;6595;49.578;11.012;2024-01-07T01:26:24;17.9;;;9.4;;
13057;SDS011;6595;49.578;11.012;2024-01-07T01:28:23;16.9;;;8.9;;
13057;SDS011;6595;49.578;11.012;2024-01-07T01:30:23;15.3;;;8.6;;
13057;SDS011;6595;49.578;11.012;2024-01-07T01:32:23;16.2;;;8.7;;
13057;SDS011;6595;49.578;11.012;2024-01-07T01:34:23;16.2;;;8.7;;
13057;SDS011;6595;49.578;11.012;2024-01-07T01:36:23;16.8;;;8.9;;
13057;SDS011;6595;49.578;11.012;2024-01-07T01:38:23;17.0;;;9.0;;
13057;SDS011;6595;49.578;11.012;2024-01-07T01:40:24;17.0;;;9.0;;
13057;SDS011;6595;49.578;11.012;2024-01-07T01:42:24;15.7;;;8.8;;
13057;SDS011;6595;49.578;11.012;2024-01-07T01:44:23;15.7;;;8.8;;
13057;SDS011;6595;49.578;11.012;2024-01-07T01:46:23;14.7;;;8.9;;
13057;SDS011;6595;49.578;11.012;2024-01-07T01:48:24;16.5;;;9.1;;
13057;SDS011;6595;49.578;11.012;2024-01-07T01:50:24;16.7;;;8.5;;
13057;SDS011;6595;49.578;11.012;2024-01-07T01:52:24;16.7;;;8.5;;
13057;SDS011;6595;49.578;11.012;2024-01-07T01:54:23;14.2;;;8.5;;
13057;SDS011;6595;49.578;11.012;2024-01-07T01:56:23;14.9;;;8.5;;
13057;SDS011;6595;49.578;11.012;2024-01-07T01:58:23;14.2;;;7.9;;
13057;SDS011;6595;49.578;11.012;2024-01-07T02:00:24;16.2;;;8.9;;
13057;SDS011;6595;49.578;11.012;2024-01-07T02:02:24;16.1;;;8.1;;
13057;SDS011;6595;49.578;11.012;2024-01-07T02:04:23;16.1;;;8.1;;
13057;SDS011;6595;49.578;11.012;2024-01-07T02:06:23;14.4;;;8.1;;
13057;SDS011;6595;49.578;11.012;2024-01-07T02:08:23;14.1;;;8.4;;
13057;SDS011;6595;49.578;11.012;2024-01-07T02:10:23;14.6;;;8.0;;
13057;SDS011;6595;49.578;11.012;2024-01-07T02:12:23;13.7;;;8.5;;
13057;SDS011;6595;49.578;11.012;2024-01-07T02:14:23;13.7;;;8.5;;
13057;SDS011;6595;49.578;11.012;2024-01-07T02:16:24;11.9;;;6.8;;
13057;SDS011;6595;49.578;11.012;2024-01-07T02:18:24;14.4;;;7.2;;
13057;SDS011;6595;49.578;11.012;2024-01-07T02:20:23;14.6;;;7.4;;
13057;SDS011;6595;49.578;11.012;2024-01-07T02:22:23;13.3;;;7.4;;
13057;SDS011;6595;49.578;11.012;2024-01-07T02:24:23;13.3;;;7.4;;
13057;SDS011;6595;49.578;11.012;2024-01-07T02:26:24;15.0;;;7.7;;
13057;SDS011;6595;49.578;11.012;2024-01-07T02:28:23;13.2;;;7.2;;
13057;SDS011;6595;49.578;11.012;2024-01-07T02:30:23;11.7;;;6.9;;
13057;SDS011;6595;49.578;11.012;2024-01-07T02:32:23;10.4;;;6.8;;
13057;SDS011;6595;49.578;11.012;2024-01-07T02:34:23;11.3;;;6.7;;
13057;SDS011;6595;49.578;11.012;2024-01-07T02:36:23;11.3;;;6.7;;
13057;SDS011;6595;49.578;11.012;2024-01-07T02:38:23;11.9;;;6.9;;
13057;SDS011;6595;49.578;11.012;2024-01-07T02:40:23;11.2;;;6.4;;
13057;SDS011;6595;49.578;11.012;2024-01-07T02:42:24;12.2;;;6.8;;
13057;SDS011;6595;49.578;11.012;2024-01-07T02:44:24;12.2;;;6.8;;
13057;SDS011;6595;49.578;11.012;2024-01-07T02:46:24;10.1;;;5.9;;
13057;SDS011;6595;49.578;11.012;2024-01-07T02:48:23;10.5;;;6.3;;
13057;SDS011;6595;49.578;11.012;2024-01-07T02:50:23;10.8;;;6.1;;
13057;SDS011;6595;49.578;11.012;2024-01-07T02:52:23;9.8;;;6.1;;
13057;SDS011;6595;49.578;11.012;2024-01-07T02:54:24;9.8;;;6.1;;
13057;SDS011;6595;49.578;11.012;2024-01-07T02:56:24;11.0;;;6.4;;
13057;SDS011;6595;49.578;11.012;2024-01-07T02:58:24;11.3;;;6.1;;
13057;SDS011;6595;49.578;11.012;2024-01-07T03:00:23;11.1;;;5.9;;
13057;SDS011;6595;49.578;11.012;2024-01-07T03:02:23;10.1;;;5.6;;
13057;SDS011;6595;49.578;11.012;2024-01-07T03:04:23;10.1;;;5.6;;
13057;SDS011;6595;49.578;11.012;2024-01-07T03:06:26;11.1;;;6.4;;
13057;SDS011;6595;49.578;11.012;2024-01-07T03:08:24;10.4;;;5.8;;
13057;SDS011;6595;49.578;11.012;2024-01-07T03:10:23;9.9;;;5.9;;
13057;SDS011;6595;49.578;11.012;2024-01-07T03:12:23;9.9;;;5.9;;
13057;SDS011;6595;49.578;11.012;2024-01-07T03:14:23;10.4;;;5.9;;
13057;SDS011;6595;49.578;11.012;2024-01-07T03:16:24;9.2;;;5.3;;
13057;SDS011;6595;49.578;11.012;2024-01-07T03:18:24;9.8;;;5.9;;
13057;SDS011;6595;49.578;11.012;2024-01-07T03:20:24;10.2;;;5.7;;
13057;SDS011;6595;49.578;11.012;2024-01-07T03:22:24;10.2;;;5.7;;
13057;SDS011;6595;49.578;11.012;2024-01-07T03:24:23;8.9;;;5.4;;
13057;SDS011;6595;49.578;11.012;2024-01-07T03:26:23;10.0;;;6.0;;
13057;SDS011;6595;49.578;11.012;2024-01-07T03:28:23;10.5;;;5.5;;
13057;SDS011;6595;49.578;11.012;2024-01-07T03:30:24;10.3;;;6.2;;
13057;SDS011;6595;49.578;11.012;2024-01-07T03:32:23;10.3;;;6.2;;
13057;SDS011;6595;49.578;11.012;2024-01-07T03:34:23;11.6;;;5.7;;
13057;SDS011;6595;49.578;11.012;2024-01-07T03:36:23;9.5;;;5.7;;
13057;SDS011;6595;49.578;11.012;2024-01-07T03:38:23;10.5;;;6.5;;
13057;SDS011;6595;49.578;11.012;2024-01-07T03:40:23;8.5;;;5.6;;
13057;SDS011;6595;49.578;11.012;2024-01-07T03:42:24;8.5;;;5.6;;
13057;SDS011;6595;49.578;11.012;2024-01-07T03:44:23;11.0;;;5.9;;
13057;SDS011;6595;49.578;11.012;2024-01-07T03:46:23;10.5;;;5.7;;
13057;SDS011;6595;49.578;11.012;2024-01-07T03:48:23;11.6;;;6.0;;
13057;SDS011;6595;49.578;11.012;2024-01-07T03:50:23;11.6;;;6.0;;
13057;SDS011;6595;49.578;11.012;2024-01-07T03:52:24;13.2;;;6.2;;
13057;SDS011;6595;49.578;11.012;2024-01-07T03:54:23;11.0;;;5.9;;
13057;SDS011;6595;49.578;11.012;2024-01-07T03:56:23;10.7;;;5.9;;
13057;SDS011;6595;49.578;11.012;2024-01-07T03:58:23;11.2;;;6.1;;
13057;SDS011;6595;49.578;11.012;2024-01-07T04:00:23;11.4;;;6.0;;
13057;SDS011;6595;49.578;11.012;2024-01-07T04:02:23;11.4;;;6.0;;
13057;SDS011;6595;49.578;11.012;2024-01-07T04:04:24;11.2;;;6.1;;
13057;SDS011;6595;49.578;11.012;2024-01-07T04:06:23;9.2;;;5.9;;
13057;SDS011;6595;49.578;11.012;2024-01-07T04:08:23;11.0;;;6.0;;
13057;SDS011;6595;49.578;11.012;2024-01-07T04:10:23;11.0;;;6.0;;
13057;SDS011;6595;49.578;11.012;2024-01-07T04:12:23;11.2;;;6.1;;
13057;SDS011;6595;49.578;11.012;2024-01-07T04:14:23;10.8;;;6.0;;
13057;SDS011;6595;49.578;11.012;2024-01-07T04:16:24;9.5;;;5.4;;
13057;SDS011;6595;49.578;11.012;2024-01-07T04:18:24;10.0;;;5.6;;
13057;SDS011;6595;49.578;11.012;2024-01-07T04:20:24;10.0;;;5.6;;
13057;SDS011;6595;49.578;11.012;2024-01-07T04:22:23;10.0;;;5.8;;
13057;SDS011;6595;49.578;11.012;2024-01-07T04:24:23;10.2;;;5.4;;
13057;SDS011;6595;49.578;11.012;2024-01-07T04:26:23;9.3;;;5.0;;
13057;SDS011;6595;49.578;11.012;2024-01-07T04:28:24;7.7;;;4.9;;
13057;SDS011;6595;49.578;11.012;2024-01-07T04:30:23;7.7;;;4.9;;
13057;SDS011;6595;49.578;11.012;2024-01-07T04:32:23;8.8;;;5.1;;
13057;SDS011;6595;49.578;11.012;2024-01-07T04:34:23;9.0;;;5.2;;
13057;SDS011;6595;49.578;11.012;2024-01-07T04:36:23;9.4;;;4.7;;
13057;SDS011;6595;49.578;11.012;2024-01-07T04:38:23;7.8;;;4.8;;
13057;SDS011;6595;49.578;11.012;2024-01-07T04:40:23;7.8;;;4.8;;
13057;SDS011;6595;49.578;11.012;2024-01-07T04:42:24;8.7;;;4.9;;
13057;SDS011;6595;49.578;11.012;2024-01-07T04:44:23;9.1;;;5.2;;
13057;SDS011;6595;49.578;11.012;2024-01-07T04:46:23;11.1;;;5.5;;
13057;SDS011;6595;49.578;11.012;2024-01-07T04:48:23;8.5;;;4.8;;
13057;SDS011;6595;49.578;11.012;2024-01-07T04:50:23;8.5;;;4.8;;
13057;SDS011;6595;49.578;11.012;2024-01-07T04:52:23;9.9;;;4.8;;
13057;SDS011;6595;49.578;11.012;2024-01-07T04:54:24;8.3;;;4.6;;
13057;SDS011;6595;49.578;11.012;2024-01-07T04:56:24;9.0;;;4.7;;
13057;SDS011;6595;49.578;11.012;2024-01-07T04:58:24;9.0;;;4.7;;
13057;SDS011;6595;49.578;11.012;2024-01-07T05:00:23;7.9;;;4.6;;
13057;SDS011;6595;49.578;11.012;2024-01-07T05:02:23;8.6;;;4.6;;
13057;SDS011;6595;49.578;11.012;2024-01-07T05:04:23;7.4;;;4.6;;
13057;SDS011;6595;49.578;11.012;2024-01-07T05:06:23;7.9;;;4.5;;
13057;SDS011;6595;49.578;11.012;2024-01-07T05:08:23;7.9;;;4.5;;
13057;SDS011;6595;49.578;11.012;2024-01-07T05:10:24;8.4;;;4.5;;
13057;SDS011;6595;49.578;11.012;2024-01-07T05:12:23;7.7;;;4.2;;
13057;SDS011;6595;49.578;11.012;2024-01-07T05:14:23;7.6;;;4.0;;
13057;SDS011;6595;49.578;11.012;2024-01-07T05:16:23;7.6;;;4.0;;
13057;SDS011;6595;49.578;11.012;2024-01-07T05:18:23;7.9;;;4.1;;
13057;SDS011;6595;49.578;11.012;2024-01-07T05:20:23;7.8;;;4.5;;
13057;SDS011;6595;49.578;11.012;2024-01-07T05:22:23;7.8;;;4.1;;
13057;SDS011;6595;49.578;11.012;2024-01-07T05:24:24;6.8;;;4.2;;
13057;SDS011;6595;49.578;11.012;2024-01-07T05:26:24;8.2;;;4.2;;
13057;SDS011;6595;49.578;11.012;2024-01-07T05:28:23;8.2;;;4.2;;
13057;SDS011;6595;49.578;11.012;2024-01-07T05:30:23;8.6;;;4.4;;
13057;SDS011;6595;49.578;11.012;2024-01-07T05:32:23;8.5;;;4.6;;
13057;SDS011;6595;49.578;11.012;2024-01-07T05:34:23;10.0;;;4.9;;
13057;SDS011;6595;49.578;11.012;2024-01-07T05:36:24;10.0;;;4.9;;
13057;SDS011;6595;49.578;11.012;2024-01-07T05:38:23;10.2;;;5.0;;
13057;SDS011;6595;49.578;11.012;2024-01-07T05:40:23;8.5;;;4.7;;
13057;SDS011;6595;49.578;11.012;2024-01-07T05:42:23;8.6;;;4.9;;
13057;SDS011;6595;49.578;11.012;2024-01-07T05:44:24;9.1;;;5.0;;
13057;SDS011;6595;49.578;11.012;2024-01-07T05:46:23;9.1;;;5.0;;
13057;SDS011;6595;49.578;11.012;2024-01-07T05:48:23;8.8;;;4.9;;
13057;SDS011;6595;49.578;11.012;2024-01-07T05:50:23;9.7;;;4.9;;
13057;SDS011;6595;49.578;11.012;2024-01-07T05:52:24;8.9;;;5.5;;
13057;SDS011;6595;49.578;11.012;2024-01-07T05:54:24;7.8;;;4.4;;
13057;SDS011;6595;49.578;11.012;2024-01-07T05:56:23;7.8;;;4.4;;
13057;SDS011;6595;49.578;11.012;2024-01-07T05:58:23;9.1;;;5.2;;
13057;SDS011;6595;49.578;11.012;2024-01-07T06:00:23;10.2;;;5.3;;
13057;SDS011;6595;49.578;11.012;2024-01-07T06:02:23;8.3;;;4.8;;
13057;SDS011;6595;49.578;11.012;2024-01-07T06:04:24;10.4;;;5.2;;
13057;SDS011;6595;49.578;11.012;2024-01-07T06:06:23;10.4;;;5.2;;
13057;SDS011;6595;49.578;11.012;2024-01-07T06:08:23;9.1;;;5.2;;
13057;SDS011;6595;49.578;11.012;2024-01-07T06:10:24;9.3;;;5.1;;
13057;SDS011;6595;49.578;11.012;2024-01-07T06:12:23;9.5;;;5.3;;
13057;SDS011;6595;49.578;11.012;2024-01-07T06:14:23;9.5;;;5.3;;
13057;SDS011;6595;49.578;11.012;2024-01-07T06:16:23;10.1;;;5.3;;
13057;SDS011;6595;49.578;11.012;2024-01-07T06:18:23;10.1;;;5.6;;
13057;SDS011;6595;49.578;11.012;2024-01-07T06:20:23;9.6;;;5.4;;
13057;SDS011;6595;49.578;11.012;2024-01-07T06:22:24;9.1;;;5.2;;
13057;SDS011;6595;49.578;11.012;2024-01-07T06:24:24;9.1;;;5.2;;
13057;SDS011;6595;49.578;11.012;2024-01-07T06:26:23;10.4;;;5.7;;
13057;SDS011;6595;49.578;11.012;2024-01-07T06:28:23;9.0;;;5.4;;
13057;SDS011;6595;49.578;11.012;2024-01-07T06:30:23;9.0;;;5.4;;
13057;SDS011;6595;49.578;11.012;2024-01-07T06:32:23;10.6;;;5.5;;
13057;SDS011;6595;49.578;11.012;2024-01-07T06:34:23;10.6;;;5.5;;
13057;SDS011;6595;49.578;11.012;2024-01-07T06:36:23;11.8;;;5.8;;
13057;SDS011;6595;49.578;11.012;2024-01-07T06:38:23;10.2;;;5.9;;
13057;SDS011;6595;49.578;11.012;2024-01-07T06:40:24;9.9;;;5.9;;
13057;SDS011;6595;49.578;11.012;2024-01-07T06:42:24;10.6;;;5.9;;
13057;SDS011;6595;49.578;11.012;2024-01-07T06:44:24;10.6;;;5.9;;
13057;SDS011;6595;49.578;11.012;2024-01-07T06:46:23;10.8;;;6.2;;
13057;SDS011;6595;49.578;11.012;2024-01-07T06:48:23;10.9;;;5.5;;
13057;SDS011;6595;49.578;11.012;2024-01-07T06:50:23;12.8;;;6.5;;
13057;SDS011;6595;49.578;11.012;2024-01-07T06:52:23;10.7;;;5.8;;
13057;SDS011;6595;49.578;11.012;2024-01-07T06:54:23;10.7;;;5.8;;
13057;SDS011;6595;49.578;11.012;2024-01-07T06:56:24;12.6;;;6.8;;
13057;SDS011;6595;49.578;11.012;2024-01-07T06:58:23;14.6;;;7.3;;
13057;SDS011;6595;49.578;11.012;2024-01-07T07:00:23;12.0;;;6.5;;
13057;SDS011;6595;49.578;11.012;2024-01-07T07:02:23;12.0;;;6.5;;
13057;SDS011;6595;49.578;11.012;2024-01-07T07:04:24;12.0;;;6.3;;
13057;SDS011;6595;49.578;11.012;2024-01-07T07:06:24;12.3;;;6.5;;
13057;SDS011;6595;49.578;11.012;2024-01-07T07:08:23;13.4;;;7.0;;
13057;SDS011;6595;49.578;11.012;2024-01-07T07:10:23;14.3;;;7.2;;
13057;SDS011;6595;49.578;11.012;2024-01-07T07:12:23;14.3;;;7.2;;
13057;SDS011;6595;49.578;11.012;2024-01-07T07:14:23;13.3;;;7.1;;
13057;SDS011;6595;49.578;11.012;2024-01-07T07:16:24;12.1;;;7.0;;
13057;SDS011;6595;49.578;11.012;2024-01-07T07:18:24;13.5;;;7.5;;
13057;SDS011;6595;49.578;11.012;2024-01-07T07:20:23;13.5;;;7.5;;
13057;SDS011;6595;49.578;11.012;2024-01-07T07:22:23;13.6;;;7.3;;
13057;SDS011;6595;49.578;11.012;2024-01-07T07:24:23;13.6;;;7.3;;
13057;SDS011;6595;49.578;11.012;2024-01-07T07:26:23;12.3;;;7.6;;
13057;SDS011;6595;49.578;11.012;2024-01-07T07:28:24;13.6;;;7.2;;
13057;SDS011;6595;49.578;11.012;2024-01-07T07:30:23;14.3;;;7.3;;
13057;SDS011;6595;49.578;11.012;2024-01-07T07:32:23;14.3;;;7.3;;
13057;SDS011;6595;49.578;11.012;2024-01-07T07:34:23;12.8;;;7.2;;
13057;SDS011;6595;49.578;11.012;2024-01-07T07:36:23;13.9;;;7.5;;
13057;SDS011;6595;49.578;11.012;2024-01-07T07:38:23;14.0;;;7.5;;
13057;SDS011;6595;49.578;11.012;2024-01-07T07:40:24;14.8;;;7.5;;
13057;SDS011;6595;49.578;11.012;2024-01-07T07:42:23;14.8;;;7.5;;
13057;SDS011;6595;49.578;11.012;2024-01-07T07:44:23;14.0;;;7.0;;
13057;SDS011;6595;49.578;11.012;2024-01-07T07:46:23;12.1;;;7.2;;
13057;SDS011;6595;49.578;11.012;2024-01-07T07:48:23;13.6;;;7.5;;
13057;SDS011;6595;49.578;11.012;2024-01-07T07:50:23;15.1;;;8.1;;
13057;SDS011;6595;49.578;11.012;2024-01-07T07:52:23;15.1;;;8.1;;
13057;SDS011;6595;49.578;11.012;2024-01-07T07:54:24;13.1;;;7.2;;
13057;SDS011;6595;49.578;11.012;2024-01-07T07:56:23;14.4;;;6.8;;
13057;SDS011;6595;49.578;11.012;2024-01-07T07:58:23;13.7;;;7.8;;
13057;SDS011;6595;49.578;11.012;2024-01-07T08:00:23;13.7;;;7.8;;
13057;SDS011;6595;49.578;11.012;2024-01-07T08:02:23;14.2;;;8.2;;
13057;SDS011;6595;49.578;11.012;2024-01-07T08:04:24;15.0;;;7.8;;
13057;SDS011;6595;49.578;11.012;2024-01-07T08:06:23;13.9;;;7.4;;
13057;SDS011;6595;49.578;11.012;2024-01-07T08:08:23;14.2;;;7.8;;
13057;SDS011;6595;49.578;11.012;2024-01-07T08:10:23;14.2;;;7.8;;
13057;SDS011;6595;49.578;11.012;2024-01-07T08:12:23;14.0;;;7.8;;
13057;SDS011;6595;49.578;11.012;2024-01-07T08:14:23;14.2;;;7.5;;
13057;SDS011;6595;49.578;11.012;2024-01-07T08:16:23;16.0;;;8.2;;
13057;SDS011;6595;49.578;11.012;2024-01-07T08:18:24;13.7;;;7.8;;
13057;SDS011;6595;49.578;11.012;2024-01-07T08:20:24;13.7;;;7.8;;
13057;SDS011;6595;49.578;11.012;2024-01-07T08:22:23;12.8;;;6.9;;
13057;SDS011;6595;49.578;11.012;2024-01-07T08:24:23;13.7;;;7.3;;
13057;SDS011;6595;49.578;11.012;2024-01-07T08:26:23;14.2;;;7.4;;
13057;SDS011;6595;49.578;11.012;2024-01-07T08:28:23;13.9;;;7.0;;
13057;SDS011;6595;49.578;11.012;2024-01-07T08:30:23;13.9;;;7.0;;
13057;SDS011;6595;49.578;11.012;2024-01-07T08:32:23;15.2;;;8.0;;
13057;SDS011;6595;49.578;11.012;2024-01-07T08:34:24;13.3;;;7.1;;
13057;SDS011;6595;49.578;11.012;2024-01-07T08:36:23;13.5;;;7.4;;
13057;SDS011;6595;49.578;11.012;2024-01-07T08:38:23;13.5;;;7.4;;
13057;SDS011;6595;49.578;11.012;2024-01-07T08:40:23;11.7;;;7.1;;
13057;SDS011;6595;49.578;11.012;2024-01-07T08:42:23;15.8;;;7.9;;
13057;SDS011;6595;49.578;11.012;2024-01-07T08:44:24;14.7;;;7.8;;
13057;SDS011;6595;49.578;11.012;2024-01-07T08:46:24;14.7;;;7.8;;
13057;SDS011;6595;49.578;11.012;2024-01-07T08:48:23;14.6;;;7.5;;
13057;SDS011;6595;49.578;11.012;2024-01-07T08:50:23;15.1;;;7.5;;
13057;SDS011;6595;49.578;11.012;2024-01-07T08:52:23;14.5;;;7.5;;
13057;SDS011;6595;49.578;11.012;2024-01-07T08:54:23;14.5;;;7.5;;
13057;SDS011;6595;49.578;11.012;2024-01-07T08:56:23;16.1;;;8.3;;
13057;SDS011;6595;49.578;11.012;2024-01-07T08:58:23;16.1;;;8.3;;
13057;SDS011;6595;49.578;11.012;2024-01-07T09:00:23;14.6;;;7.7;;
13057;SDS011;6595;49.578;11.012;2024-01-07T09:02:24;14.4;;;8.2;;
13057;SDS011;6595;49.578;11.012;2024-01-07T09:04:24;13.1;;;7.6;;
13057;SDS011;6595;49.578;11.012;2024-01-07T09:06:23;15.8;;;8.8;;
13057;SDS011;6595;49.578;11.012;2024-01-07T09:08:23;15.8;;;8.8;;
13057;SDS011;6595;49.578;11.012;2024-01-07T09:10:23;15.9;;;8.1;;
13057;SDS011;6595;49.578;11.012;2024-01-07T09:12:23;15.9;;;8.1;;
13057;SDS011;6595;49.578;11.012;2024-01-07T09:14:24;14.0;;;7.9;;
13057;SDS011;6595;49.578;11.012;2024-01-07T09:16:24;14.0;;;7.9;;
13057;SDS011;6595;49.578;11.012;2024-01-07T09:18:23;15.3;;;7.7;;
13057;SDS011;6595;49.578;11.012;2024-01-07T09:20:23;14.7;;;8.1;;
13057;SDS011;6595;49.578;11.012;2024-01-07T09:22:23;14.7;;;8.1;;
13057;SDS011;6595;49.578;11.012;2024-01-07T09:24:23;14.3;;;7.6;;
13057;SDS011;6595;49.578;11.012;2024-01-07T09:26:23;14.3;;;7.6;;
13057;SDS011;6595;49.578;11.012;2024-01-07T09:28:24;14.2;;;7.7;;
13057;SDS011;6595;49.578;11.012;2024-01-07T09:30:23;16.2;;;8.6;;
13057;SDS011;6595;49.578;11.012;2024-01-07T09:32:23;16.5;;;8.0;;
13057;SDS011;6595;49.578;11.012;2024-01-07T09:34:23;15.1;;;8.3;;
13057;SDS011;6595;49.578;11.012;2024-01-07T09:36:23;15.1;;;8.3;;
13057;SDS011;6595;49.578;11.012;2024-01-07T09:38:23;15.7;;;8.7;;
13057;SDS011;6595;49.578;11.012;2024-01-07T09:40:23;15.5;;;8.6;;
13057;SDS011;6595;49.578;11.012;2024-01-07T09:42:23;15.9;;;8.5;;
13057;SDS011;6595;49.578;11.012;2024-01-07T09:44:23;15.9;;;8.5;;
13057;SDS011;6595;49.578;11.012;2024-01-07T09:46:24;16.7;;;8.6;;
13057;SDS011;6595;49.578;11.012;2024-01-07T09:48:23;15.7;;;8.3;;
13057;SDS011;6595;49.578;11.012;2024-01-07T09:50:23;15.7;;;8.3;;
13057;SDS011;6595;49.578;11.012;2024-01-07T09:52:23;15.2;;;7.5;;
13057;SDS011;6595;49.578;11.012;2024-01-07T09:54:24;15.2;;;7.5;;
13057;SDS011;6595;49.578;11.012;2024-01-07T09:56:24;18.5;;;8.7;;
13057;SDS011;6595;49.578;11.012;2024-01-07T09:58:23;15.2;;;7.8;;
13057;SDS011;6595;49.578;11.012;2024-01-07T10:00:24;17.6;;;8.6;;
13057;SDS011;6595;49.578;11.012;2024-01-07T10:02:23;17.7;;;8.1;;
13057;SDS011;6595;49.578;11.012;2024-01-07T10:04:23;15.5;;;7.9;;
13057;SDS011;6595;49.578;11.012;2024-01-07T10:06:23;15.5;;;7.9;;
13057;SDS011;6595;49.578;11.012;2024-01-07T10:08:23;15.4;;;8.1;;
13057;SDS011;6595;49.578;11.012;2024-01-07T10:10:23;15.9;;;8.2;;
13057;SDS011;6595;49.578;11.012;2024-01-07T10:12:23;15.0;;;8.2;;
13057;SDS011;6595;49.578;11.012;2024-01-07T10:14:23;15.0;;;8.2;;
13057;SDS011;6595;49.578;11.012;2024-01-07T10:16:24;14.7;;;8.3;;
13057;SDS011;6595;49.578;11.012;2024-01-07T10:18:24;14.4;;;8.0;;
13057;SDS011;6595;49.578;11.012;2024-01-07T10:20:24;15.9;;;8.5;;
13057;SDS011;6595;49.578;11.012;2024-01-07T10:22:23;15.9;;;8.5;;
13057;SDS011;6595;49.578;11.012;2024-01-07T10:24:23;15.4;;;7.4;;
13057;SDS011;6595;49.578;11.012;2024-01-07T10:26:23;14.0;;;7.4;;
13057;SDS011;6595;49.578;11.012;2024-01-07T10:28:24;15.1;;;8.4;;
13057;SDS011;6595;49.578;11.012;2024-01-07T10:30:24;15.4;;;8.4;;
13057;SDS011;6595;49.578;11.012;2024-01-07T10:32:24;15.4;;;8.4;;
13057;SDS011;6595;49.578;11.012;2024-01-07T10:34:24;15.6;;;8.9;;
13057;SDS011;6595;49.578;11.012;2024-01-07T10:36:23;16.6;;;8.7;;
13057;SDS011;6595;49.578;11.012;2024-01-07T10:38:23;18.6;;;8.4;;
13057;SDS011;6595;49.578;11.012;2024-01-07T10:40:23;16.7;;;8.3;;
13057;SDS011;6595;49.578;11.012;2024-01-07T10:42:23;14.4;;;7.9;;
13057;SDS011;6595;49.578;11.012;2024-01-07T10:44:25;14.4;;;7.9;;
13057;SDS011;6595;49.578;11.012;2024-01-07T10:46:23;16.7;;;8.6;;
13057;SDS011;6595;49.578;11.012;2024-01-07T10:48:23;16.1;;;8.4;;
13057;SDS011;6595;49.578;11.012;2024-01-07T10:50:24;16.1;;;8.4;;
13057;SDS011;6595;49.578;11.012;2024-01-07T10:52:23;17.0;;;8.7;;
13057;SDS011;6595;49.578;11.012;2024-01-07T10:54:24;17.1;;;8.3;;
13057;SDS011;6595;49.578;11.012;2024-01-07T10:56:23;15.9;;;8.4;;
13057;SDS011;6595;49.578;11.012;2024-01-07T10:58:24;15.0;;;7.3;;
13057;SDS011;6595;49.578;11.012;2024-01-07T11:00:23;14.4;;;7.6;;
13057;SDS011;6595;49.578;11.012;2024-01-07T11:02:23;14.4;;;7.6;;
13057;SDS011;6595;49.578;11.012;2024-01-07T11:04:25;17.4;;;8.9;;
13057;SDS011;6595;49.578;11.012;2024-01-07T11:06:25;17.3;;;8.6;;
13057;SDS011;6595;49.578;11.012;2024-01-07T11:08:23;18.8;;;9.3;;
13057;SDS011;6595;49.578;11.012;2024-01-07T11:10:25;15.3;;;8.5;;
13057;SDS011;6595;49.578;11.012;2024-01-07T11:12:23;15.3;;;8.5;;
13057;SDS011;6595;49.578;11.012;2024-01-07T11:18:24;16.6;;;8.0;;
13057;SDS011;6595;49.578;11.012;2024-01-07T11:20:24;16.6;;;8.0;;
13057;SDS011;6595;49.578;11.012;2024-01-07T11:22:24;16.9;;;8.4;;
13057;SDS011;6595;49.578;11.012;2024-01-07T11:26:23;16.2;;;8.0;;
13057;SDS011;6595;49.578;11.012;2024-01-07T11:30:23;13.9;;;7.9;;
13057;SDS011;6595;49.578;11.012;2024-01-07T11:32:23;13.9;;;7.9;;
13057;SDS011;6595;49.578;11.012;2024-01-07T11:36:23;14.9;;;7.7;;
13057;SDS011;6595;49.578;11.012;2024-01-07T11:38:23;14.0;;;6.9;;
13057;SDS011;6595;49.578;11.012;2024-01-07T11:40:23;14.0;;;6.9;;
13057;SDS011;6595;49.578;11.012;2024-01-07T11:42:23;14.7;;;7.2;;
13057;SDS011;6595;49.578;11.012;2024-01-07T11:44:24;14.1;;;7.3;;
13057;SDS011;6595;49.578;11.012;2024-01-07T11:46:24;13.7;;;7.2;;
13057;SDS011;6595;49.578;11.012;2024-01-07T11:48:24;11.7;;;6.8;;
13057;SDS011;6595;49.578;11.012;2024-01-07T11:50:23;11.7;;;6.8;;
13057;SDS011;6595;49.578;11.012;2024-01-07T11:52:24;13.3;;;7.2;;
13057;SDS011;6595;49.578;11.012;2024-01-07T11:54:23;13.9;;;7.5;;
13057;SDS011;6595;49.578;11.012;2024-01-07T11:56:24;13.8;;;7.5;;
13057;SDS011;6595;49.578;11.012;2024-01-07T11:58:23;14.6;;;7.4;;
13057;SDS011;6595;49.578;11.012;2024-01-07T12:00:23;14.6;;;7.4;;
13057;SDS011;6595;49.578;11.012;2024-01-07T12:02:23;15.1;;;7.6;;
13057;SDS011;6595;49.578;11.012;2024-01-07T12:04:24;12.3;;;7.0;;
13057;SDS011;6595;49.578;11.012;2024-01-07T12:06:24;13.4;;;6.8;;
13057;SDS011;6595;49.578;11.012;2024-01-07T12:08:24;13.4;;;6.8;;
13057;SDS011;6595;49.578;11.012;2024-01-07T12:10:24;13.9;;;7.2;;
13057;SDS011;6595;49.578;11.012;2024-01-07T12:12:23;12.9;;;7.2;;
13057;SDS011;6595;49.578;11.012;2024-01-07T12:14:23;13.8;;;6.9;;
13057;SDS011;6595;49.578;11.012;2024-01-07T12:16:23;15.5;;;7.0;;
13057;SDS011;6595;49.578;11.012;2024-01-07T12:18:23;15.5;;;7.0;;
13057;SDS011;6595;49.578;11.012;2024-01-07T12:20:23;12.5;;;6.2;;
13057;SDS011;6595;49.578;11.012;2024-01-07T12:22:23;12.9;;;7.1;;
13057;SDS011;6595;49.578;11.012;2024-01-07T12:24:24;10.1;;;6.3;;